sensor_id;sensor_type;location;lat;lon;timestamp;P1;durP1;ratioP1;P2;durP2;ratioP2
69256;SDS011;56376;53.356;-1.748;2022-09-12T00:00:39;2.33;;;2.10;;
69256;SDS011;56376;53.356;-1.748;2022-09-12T00:03:05;2.72;;;2.05;;
69256;SDS011;56376;53.356;-1.748;2022-09-12T00:05:30;2.85;;;2.00;;
69256;SDS011;56376;53.356;-1.748;2022-09-12T00:07:57;2.47;;;2.20;;
69256;SDS011;56376;53.356;-1.748;2022-09-12T00:10:22;3.15;;;2.10;;
69256;SDS011;56376;53.356;-1.748;2022-09-12T00:12:48;2.75;;;2.22;;
69256;SDS011;56376;53.356;-1.748;2022-09-12T00:15:13;2.20;;;1.83;;
69256;SDS011;56376;53.356;-1.748;2022-09-12T00:17:39;2.47;;;2.28;;
69256;SDS011;56376;53.356;-1.748;2022-09-12T00:20:05;2.95;;;2.28;;
69256;SDS011;56376;53.356;-1.748;2022-09-12T00:22:33;2.55;;;2.05;;
69256;SDS011;56376;53.356;-1.748;2022-09-12T00:24:59;2.35;;;2.15;;
69256;SDS011;56376;53.356;-1.748;2022-09-12T00:27:25;2.67;;;2.10;;
69256;SDS011;56376;53.356;-1.748;2022-09-12T00:29:51;2.75;;;2.38;;
69256;SDS011;56376;53.356;-1.748;2022-09-12T00:32:16;2.63;;;2.30;;
69256;SDS011;56376;53.356;-1.748;2022-09-12T00:34:42;2.88;;;2.60;;
69256;SDS011;56376;53.356;-1.748;2022-09-12T00:37:07;2.97;;;2.40;;
69256;SDS011;56376;53.356;-1.748;2022-09-12T00:39:33;2.83;;;2.40;;
69256;SDS011;56376;53.356;-1.748;2022-09-12T00:41:58;2.85;;;2.25;;
69256;SDS011;56376;53.356;-1.748;2022-09-12T00:46:50;2.97;;;2.67;;
69256;SDS011;56376;53.356;-1.748;2022-09-12T00:49:42;4.65;;;2.83;;
69256;SDS011;56376;53.356;-1.748;2022-09-12T00:52:16;2.65;;;2.45;;
69256;SDS011;56376;53.356;-1.748;2022-09-12T00:57:33;5.05;;;3.85;;
69256;SDS011;56376;53.356;-1.748;2022-09-12T01:00:05;3.90;;;3.15;;
69256;SDS011;56376;53.356;-1.748;2022-09-12T01:02:40;4.15;;;2.88;;
69256;SDS011;56376;53.356;-1.748;2022-09-12T01:05:08;4.80;;;3.20;;
69256;SDS011;56376;53.356;-1.748;2022-09-12T01:07:37;2.95;;;2.65;;
69256;SDS011;56376;53.356;-1.748;2022-09-12T01:10:04;3.05;;;2.75;;
69256;SDS011;56376;53.356;-1.748;2022-09-12T01:12:30;3.65;;;3.05;;
69256;SDS011;56376;53.356;-1.748;2022-09-12T01:14:57;3.00;;;2.70;;
69256;SDS011;56376;53.356;-1.748;2022-09-12T01:17:23;3.05;;;2.85;;
69256;SDS011;56376;53.356;-1.748;2022-09-12T01:25:27;3.40;;;3.10;;
69256;SDS011;56376;53.356;-1.748;2022-09-12T01:36:18;3.17;;;2.92;;
69256;SDS011;56376;53.356;-1.748;2022-09-12T01:39:05;3.28;;;2.97;;
69256;SDS011;56376;53.356;-1.748;2022-09-12T01:45:11;4.38;;;3.70;;
69256;SDS011;56376;53.356;-1.748;2022-09-12T01:47:52;3.40;;;3.10;;
69256;SDS011;56376;53.356;-1.748;2022-09-12T01:50:38;3.10;;;2.80;;
69256;SDS011;56376;53.356;-1.748;2022-09-12T01:53:12;4.18;;;3.28;;
69256;SDS011;56376;53.356;-1.748;2022-09-12T01:55:44;3.17;;;2.85;;
69256;SDS011;56376;53.356;-1.748;2022-09-12T01:58:19;3.42;;;3.08;;
69256;SDS011;56376;53.356;-1.748;2022-09-12T02:00:54;2.67;;;2.47;;
69256;SDS011;56376;53.356;-1.748;2022-09-12T02:03:28;3.30;;;3.00;;
69256;SDS011;56376;53.356;-1.748;2022-09-12T02:06:00;4.10;;;3.15;;
69256;SDS011;56376;53.356;-1.748;2022-09-12T02:08:32;3.50;;;2.60;;
69256;SDS011;56376;53.356;-1.748;2022-09-12T02:11:04;3.08;;;2.80;;
69256;SDS011;56376;53.356;-1.748;2022-09-12T02:13:43;2.97;;;2.78;;
69256;SDS011;56376;53.356;-1.748;2022-09-12T02:18:46;3.60;;;3.30;;
69256;SDS011;56376;53.356;-1.748;2022-09-12T02:21:20;2.88;;;2.63;;
69256;SDS011;56376;53.356;-1.748;2022-09-12T02:23:50;3.67;;;3.38;;
69256;SDS011;56376;53.356;-1.748;2022-09-12T02:26:28;3.72;;;3.42;;
69256;SDS011;56376;53.356;-1.748;2022-09-12T02:28:58;4.32;;;3.92;;
69256;SDS011;56376;53.356;-1.748;2022-09-12T02:31:36;4.50;;;4.10;;
69256;SDS011;56376;53.356;-1.748;2022-09-12T02:37:28;3.95;;;3.65;;
69256;SDS011;56376;53.356;-1.748;2022-09-12T02:39:56;4.57;;;4.18;;
69256;SDS011;56376;53.356;-1.748;2022-09-12T02:42:23;4.70;;;4.30;;
69256;SDS011;56376;53.356;-1.748;2022-09-12T02:44:48;4.47;;;4.13;;
69256;SDS011;56376;53.356;-1.748;2022-09-12T02:47:22;4.65;;;4.25;;
69256;SDS011;56376;53.356;-1.748;2022-09-12T02:49:51;4.28;;;3.88;;
69256;SDS011;56376;53.356;-1.748;2022-09-12T02:52:18;4.75;;;4.35;;
69256;SDS011;56376;53.356;-1.748;2022-09-12T02:54:44;4.75;;;4.40;;
69256;SDS011;56376;53.356;-1.748;2022-09-12T02:57:14;5.38;;;4.88;;
69256;SDS011;56376;53.356;-1.748;2022-09-12T02:59:43;4.78;;;4.35;;
69256;SDS011;56376;53.356;-1.748;2022-09-12T03:02:14;5.05;;;4.55;;
69256;SDS011;56376;53.356;-1.748;2022-09-12T03:11:10;5.00;;;4.57;;
69256;SDS011;56376;53.356;-1.748;2022-09-12T03:19:24;5.28;;;4.78;;
69256;SDS011;56376;53.356;-1.748;2022-09-12T03:27:21;4.85;;;4.45;;
69256;SDS011;56376;53.356;-1.748;2022-09-12T03:30:04;4.60;;;4.20;;
69256;SDS011;56376;53.356;-1.748;2022-09-12T03:32:47;4.40;;;4.00;;
69256;SDS011;56376;53.356;-1.748;2022-09-12T03:35:15;5.45;;;4.93;;
69256;SDS011;56376;53.356;-1.748;2022-09-12T03:37:42;5.80;;;5.10;;
69256;SDS011;56376;53.356;-1.748;2022-09-12T03:40:09;5.22;;;4.72;;
69256;SDS011;56376;53.356;-1.748;2022-09-12T03:42:35;4.68;;;4.30;;
69256;SDS011;56376;53.356;-1.748;2022-09-12T03:45:01;5.13;;;4.72;;
69256;SDS011;56376;53.356;-1.748;2022-09-12T03:47:27;4.25;;;3.92;;
69256;SDS011;56376;53.356;-1.748;2022-09-12T03:49:52;5.13;;;4.63;;
69256;SDS011;56376;53.356;-1.748;2022-09-12T03:52:18;5.45;;;4.95;;
69256;SDS011;56376;53.356;-1.748;2022-09-12T03:54:43;5.25;;;4.85;;
69256;SDS011;56376;53.356;-1.748;2022-09-12T03:57:09;5.40;;;4.90;;
69256;SDS011;56376;53.356;-1.748;2022-09-12T03:59:34;5.28;;;4.78;;
69256;SDS011;56376;53.356;-1.748;2022-09-12T04:02:00;5.70;;;5.20;;
69256;SDS011;56376;53.356;-1.748;2022-09-12T04:04:25;6.38;;;5.78;;
69256;SDS011;56376;53.356;-1.748;2022-09-12T04:06:51;6.45;;;5.20;;
69256;SDS011;56376;53.356;-1.748;2022-09-12T04:09:16;7.28;;;5.57;;
69256;SDS011;56376;53.356;-1.748;2022-09-12T04:11:42;6.85;;;6.03;;
69256;SDS011;56376;53.356;-1.748;2022-09-12T04:14:08;7.57;;;6.93;;
69256;SDS011;56376;53.356;-1.748;2022-09-12T04:16:33;6.38;;;5.78;;
69256;SDS011;56376;53.356;-1.748;2022-09-12T04:18:59;6.85;;;6.25;;
69256;SDS011;56376;53.356;-1.748;2022-09-12T04:21:24;6.63;;;6.05;;
69256;SDS011;56376;53.356;-1.748;2022-09-12T04:23:50;6.85;;;6.20;;
69256;SDS011;56376;53.356;-1.748;2022-09-12T04:26:16;6.32;;;5.80;;
69256;SDS011;56376;53.356;-1.748;2022-09-12T04:28:43;6.85;;;6.22;;
69256;SDS011;56376;53.356;-1.748;2022-09-12T04:31:10;7.00;;;6.30;;
69256;SDS011;56376;53.356;-1.748;2022-09-12T04:33:46;7.05;;;6.35;;
69256;SDS011;56376;53.356;-1.748;2022-09-12T04:36:13;6.97;;;6.38;;
69256;SDS011;56376;53.356;-1.748;2022-09-12T04:38:41;6.40;;;5.80;;
69256;SDS011;56376;53.356;-1.748;2022-09-12T04:41:09;7.00;;;6.30;;
69256;SDS011;56376;53.356;-1.748;2022-09-12T04:43:39;7.10;;;5.85;;
69256;SDS011;56376;53.356;-1.748;2022-09-12T04:46:06;6.57;;;5.95;;
69256;SDS011;56376;53.356;-1.748;2022-09-12T04:48:32;5.68;;;5.18;;
69256;SDS011;56376;53.356;-1.748;2022-09-12T04:51:15;6.43;;;5.82;;
69256;SDS011;56376;53.356;-1.748;2022-09-12T04:53:52;6.63;;;5.90;;
69256;SDS011;56376;53.356;-1.748;2022-09-12T04:56:19;6.82;;;5.55;;
69256;SDS011;56376;53.356;-1.748;2022-09-12T04:58:46;5.65;;;5.13;;
69256;SDS011;56376;53.356;-1.748;2022-09-12T05:01:12;5.50;;;5.00;;
69256;SDS011;56376;53.356;-1.748;2022-09-12T05:03:40;5.72;;;5.13;;
69256;SDS011;56376;53.356;-1.748;2022-09-12T05:06:12;5.07;;;4.60;;
69256;SDS011;56376;53.356;-1.748;2022-09-12T05:08:39;6.38;;;5.53;;
69256;SDS011;56376;53.356;-1.748;2022-09-12T05:11:06;5.75;;;5.25;;
69256;SDS011;56376;53.356;-1.748;2022-09-12T05:13:35;5.55;;;5.05;;
69256;SDS011;56376;53.356;-1.748;2022-09-12T05:16:01;5.88;;;5.13;;
69256;SDS011;56376;53.356;-1.748;2022-09-12T05:18:32;6.07;;;5.57;;
69256;SDS011;56376;53.356;-1.748;2022-09-12T05:20:59;4.55;;;4.15;;
69256;SDS011;56376;53.356;-1.748;2022-09-12T05:23:25;5.43;;;4.72;;
69256;SDS011;56376;53.356;-1.748;2022-09-12T05:25:52;5.55;;;4.75;;
69256;SDS011;56376;53.356;-1.748;2022-09-12T05:28:18;6.05;;;5.38;;
69256;SDS011;56376;53.356;-1.748;2022-09-12T05:30:45;6.78;;;5.13;;
69256;SDS011;56376;53.356;-1.748;2022-09-12T05:33:11;5.30;;;4.78;;
69256;SDS011;56376;53.356;-1.748;2022-09-12T05:35:37;5.25;;;4.75;;
69256;SDS011;56376;53.356;-1.748;2022-09-12T05:38:04;4.50;;;4.10;;
69256;SDS011;56376;53.356;-1.748;2022-09-12T05:40:30;4.60;;;4.20;;
69256;SDS011;56376;53.356;-1.748;2022-09-12T05:42:56;4.95;;;4.07;;
69256;SDS011;56376;53.356;-1.748;2022-09-12T05:45:21;4.25;;;3.85;;
69256;SDS011;56376;53.356;-1.748;2022-09-12T05:47:47;3.97;;;3.50;;
69256;SDS011;56376;53.356;-1.748;2022-09-12T05:50:13;4.22;;;3.83;;
69256;SDS011;56376;53.356;-1.748;2022-09-12T05:52:38;3.63;;;3.33;;
69256;SDS011;56376;53.356;-1.748;2022-09-12T05:55:04;4.13;;;3.70;;
69256;SDS011;56376;53.356;-1.748;2022-09-12T05:57:30;4.63;;;4.22;;
69256;SDS011;56376;53.356;-1.748;2022-09-12T05:59:55;4.40;;;4.00;;
69256;SDS011;56376;53.356;-1.748;2022-09-12T06:02:21;4.30;;;3.90;;
69256;SDS011;56376;53.356;-1.748;2022-09-12T06:04:46;3.97;;;3.67;;
69256;SDS011;56376;53.356;-1.748;2022-09-12T06:07:11;4.00;;;3.70;;
69256;SDS011;56376;53.356;-1.748;2022-09-12T06:09:37;4.00;;;3.70;;
69256;SDS011;56376;53.356;-1.748;2022-09-12T06:12:03;3.63;;;3.33;;
69256;SDS011;56376;53.356;-1.748;2022-09-12T06:14:28;3.90;;;3.50;;
69256;SDS011;56376;53.356;-1.748;2022-09-12T06:16:54;3.60;;;3.30;;
69256;SDS011;56376;53.356;-1.748;2022-09-12T06:19:20;3.00;;;2.80;;
69256;SDS011;56376;53.356;-1.748;2022-09-12T06:21:48;3.72;;;3.28;;
69256;SDS011;56376;53.356;-1.748;2022-09-12T06:24:17;3.33;;;3.05;;
69256;SDS011;56376;53.356;-1.748;2022-09-12T06:26:43;3.40;;;3.10;;
69256;SDS011;56376;53.356;-1.748;2022-09-12T06:29:09;3.90;;;3.58;;
69256;SDS011;56376;53.356;-1.748;2022-09-12T06:31:36;3.63;;;3.33;;
69256;SDS011;56376;53.356;-1.748;2022-09-12T06:34:06;3.90;;;3.60;;
69256;SDS011;56376;53.356;-1.748;2022-09-12T06:36:35;3.88;;;3.35;;
69256;SDS011;56376;53.356;-1.748;2022-09-12T06:39:04;3.38;;;3.08;;
69256;SDS011;56376;53.356;-1.748;2022-09-12T06:41:31;3.15;;;2.90;;
69256;SDS011;56376;53.356;-1.748;2022-09-12T06:43:58;3.22;;;2.92;;
69256;SDS011;56376;53.356;-1.748;2022-09-12T06:46:25;3.28;;;2.97;;
69256;SDS011;56376;53.356;-1.748;2022-09-12T06:48:52;3.25;;;2.95;;
69256;SDS011;56376;53.356;-1.748;2022-09-12T06:51:19;3.50;;;3.20;;
69256;SDS011;56376;53.356;-1.748;2022-09-12T06:53:45;3.47;;;3.08;;
69256;SDS011;56376;53.356;-1.748;2022-09-12T06:56:12;3.28;;;2.97;;
69256;SDS011;56376;53.356;-1.748;2022-09-12T06:58:41;3.25;;;2.95;;
69256;SDS011;56376;53.356;-1.748;2022-09-12T07:01:14;3.17;;;2.88;;
69256;SDS011;56376;53.356;-1.748;2022-09-12T07:03:41;3.20;;;3.00;;
69256;SDS011;56376;53.356;-1.748;2022-09-12T07:06:11;3.60;;;3.30;;
69256;SDS011;56376;53.356;-1.748;2022-09-12T07:08:38;3.20;;;2.90;;
69256;SDS011;56376;53.356;-1.748;2022-09-12T07:11:12;3.42;;;3.13;;
69256;SDS011;56376;53.356;-1.748;2022-09-12T07:13:40;3.20;;;2.90;;
69256;SDS011;56376;53.356;-1.748;2022-09-12T07:16:08;3.20;;;2.90;;
69256;SDS011;56376;53.356;-1.748;2022-09-12T07:18:34;3.45;;;3.15;;
69256;SDS011;56376;53.356;-1.748;2022-09-12T07:21:13;3.10;;;2.90;;
69256;SDS011;56376;53.356;-1.748;2022-09-12T07:23:39;2.63;;;2.42;;
69256;SDS011;56376;53.356;-1.748;2022-09-12T07:26:06;2.70;;;2.50;;
69256;SDS011;56376;53.356;-1.748;2022-09-12T07:28:32;2.70;;;2.50;;
69256;SDS011;56376;53.356;-1.748;2022-09-12T07:31:08;2.90;;;2.70;;
69256;SDS011;56376;53.356;-1.748;2022-09-12T07:33:38;3.03;;;2.72;;
69256;SDS011;56376;53.356;-1.748;2022-09-12T07:36:09;3.40;;;2.72;;
69256;SDS011;56376;53.356;-1.748;2022-09-12T07:38:37;2.97;;;2.78;;
69256;SDS011;56376;53.356;-1.748;2022-09-12T07:43:59;3.42;;;2.67;;
69256;SDS011;56376;53.356;-1.748;2022-09-12T07:46:26;3.83;;;3.05;;
69256;SDS011;56376;53.356;-1.748;2022-09-12T07:48:54;3.30;;;2.78;;
69256;SDS011;56376;53.356;-1.748;2022-09-12T07:51:21;3.25;;;2.97;;
69256;SDS011;56376;53.356;-1.748;2022-09-12T07:53:47;3.50;;;3.20;;
69256;SDS011;56376;53.356;-1.748;2022-09-12T07:56:14;2.90;;;2.70;;
69256;SDS011;56376;53.356;-1.748;2022-09-12T07:58:40;2.70;;;2.42;;
69256;SDS011;56376;53.356;-1.748;2022-09-12T08:01:08;3.10;;;2.80;;
69256;SDS011;56376;53.356;-1.748;2022-09-12T08:03:37;3.10;;;2.80;;
69256;SDS011;56376;53.356;-1.748;2022-09-12T08:06:07;2.80;;;2.50;;
69256;SDS011;56376;53.356;-1.748;2022-09-12T08:08:45;3.00;;;2.33;;
69256;SDS011;56376;53.356;-1.748;2022-09-12T08:11:12;3.03;;;2.67;;
69256;SDS011;56376;53.356;-1.748;2022-09-12T08:13:40;2.92;;;2.50;;
69256;SDS011;56376;53.356;-1.748;2022-09-12T08:16:07;3.08;;;2.78;;
69256;SDS011;56376;53.356;-1.748;2022-09-12T08:18:40;2.33;;;2.13;;
69256;SDS011;56376;53.356;-1.748;2022-09-12T08:21:16;2.80;;;2.60;;
69256;SDS011;56376;53.356;-1.748;2022-09-12T08:23:46;3.78;;;3.15;;
69256;SDS011;56376;53.356;-1.748;2022-09-12T08:26:12;3.13;;;2.83;;
69256;SDS011;56376;53.356;-1.748;2022-09-12T08:28:37;4.05;;;2.75;;
69256;SDS011;56376;53.356;-1.748;2022-09-12T08:31:09;2.85;;;2.65;;
69256;SDS011;56376;53.356;-1.748;2022-09-12T08:33:37;2.60;;;2.40;;
69256;SDS011;56376;53.356;-1.748;2022-09-12T08:38:32;3.40;;;3.03;;
69256;SDS011;56376;53.356;-1.748;2022-09-12T08:41:08;2.70;;;2.50;;
69256;SDS011;56376;53.356;-1.748;2022-09-12T08:46:23;2.50;;;2.30;;
69256;SDS011;56376;53.356;-1.748;2022-09-12T08:48:56;3.70;;;2.63;;
69256;SDS011;56376;53.356;-1.748;2022-09-12T08:51:24;2.60;;;2.33;;
69256;SDS011;56376;53.356;-1.748;2022-09-12T08:53:52;2.40;;;2.20;;
69256;SDS011;56376;53.356;-1.748;2022-09-12T08:56:20;3.15;;;2.60;;
69256;SDS011;56376;53.356;-1.748;2022-09-12T08:58:46;2.90;;;2.70;;
69256;SDS011;56376;53.356;-1.748;2022-09-12T09:01:28;2.70;;;2.50;;
69256;SDS011;56376;53.356;-1.748;2022-09-12T09:20:54;2.22;;;2.03;;
69256;SDS011;56376;53.356;-1.748;2022-09-12T09:25:57;1.88;;;1.77;;
69256;SDS011;56376;53.356;-1.748;2022-09-12T09:28:49;2.60;;;2.20;;
69256;SDS011;56376;53.356;-1.748;2022-09-12T09:31:20;1.75;;;1.65;;
69256;SDS011;56376;53.356;-1.748;2022-09-12T09:33:48;2.10;;;1.90;;
69256;SDS011;56376;53.356;-1.748;2022-09-12T09:38:51;2.60;;;2.40;;
69256;SDS011;56376;53.356;-1.748;2022-09-12T09:41:40;1.85;;;1.75;;
69256;SDS011;56376;53.356;-1.748;2022-09-12T09:44:29;1.60;;;1.50;;
69256;SDS011;56376;53.356;-1.748;2022-09-12T09:46:57;2.78;;;2.00;;
69256;SDS011;56376;53.356;-1.748;2022-09-12T09:49:24;2.55;;;2.15;;
69256;SDS011;56376;53.356;-1.748;2022-09-12T09:51:52;2.05;;;1.85;;
69256;SDS011;56376;53.356;-1.748;2022-09-12T09:54:20;2.55;;;2.30;;
69256;SDS011;56376;53.356;-1.748;2022-09-12T09:57:00;2.10;;;1.90;;
69256;SDS011;56376;53.356;-1.748;2022-09-12T09:59:26;2.08;;;1.70;;
69256;SDS011;56376;53.356;-1.748;2022-09-12T10:01:54;1.92;;;1.60;;
69256;SDS011;56376;53.356;-1.748;2022-09-12T10:06:58;4.13;;;1.90;;
69256;SDS011;56376;53.356;-1.748;2022-09-12T10:09:26;1.55;;;1.40;;
69256;SDS011;56376;53.356;-1.748;2022-09-12T10:11:55;1.52;;;1.25;;
69256;SDS011;56376;53.356;-1.748;2022-09-12T10:16:52;1.70;;;1.27;;
69256;SDS011;56376;53.356;-1.748;2022-09-12T10:19:21;2.15;;;1.63;;
69256;SDS011;56376;53.356;-1.748;2022-09-12T10:21:53;1.42;;;1.33;;
69256;SDS011;56376;53.356;-1.748;2022-09-12T10:24:20;1.75;;;1.60;;
69256;SDS011;56376;53.356;-1.748;2022-09-12T10:26:56;2.75;;;1.55;;
69256;SDS011;56376;53.356;-1.748;2022-09-12T10:29:29;1.90;;;1.60;;
69256;SDS011;56376;53.356;-1.748;2022-09-12T10:31:57;1.75;;;1.65;;
69256;SDS011;56376;53.356;-1.748;2022-09-12T10:34:30;2.05;;;1.80;;
69256;SDS011;56376;53.356;-1.748;2022-09-12T10:37:02;3.90;;;2.10;;
69256;SDS011;56376;53.356;-1.748;2022-09-12T10:39:30;2.08;;;1.88;;
69256;SDS011;56376;53.356;-1.748;2022-09-12T10:41:58;1.95;;;1.85;;
69256;SDS011;56376;53.356;-1.748;2022-09-12T10:44:25;2.10;;;1.90;;
69256;SDS011;56376;53.356;-1.748;2022-09-12T10:46:52;2.10;;;1.90;;
69256;SDS011;56376;53.356;-1.748;2022-09-12T10:49:20;1.95;;;1.83;;
69256;SDS011;56376;53.356;-1.748;2022-09-12T10:51:45;2.53;;;2.00;;
69256;SDS011;56376;53.356;-1.748;2022-09-12T10:54:12;1.90;;;1.80;;
69256;SDS011;56376;53.356;-1.748;2022-09-12T11:02:35;2.08;;;1.90;;
69256;SDS011;56376;53.356;-1.748;2022-09-12T11:05:11;1.90;;;1.70;;
69256;SDS011;56376;53.356;-1.748;2022-09-12T11:07:45;1.90;;;1.80;;
69256;SDS011;56376;53.356;-1.748;2022-09-12T11:30:06;1.98;;;1.77;;
69256;SDS011;56376;53.356;-1.748;2022-09-12T11:35:25;1.70;;;1.60;;
69256;SDS011;56376;53.356;-1.748;2022-09-12T11:43:45;1.60;;;1.50;;
69256;SDS011;56376;53.356;-1.748;2022-09-12T11:46:15;1.50;;;1.40;;
69256;SDS011;56376;53.356;-1.748;2022-09-12T11:54:26;3.00;;;1.23;;
69256;SDS011;56376;53.356;-1.748;2022-09-12T11:57:10;1.20;;;1.10;;
69256;SDS011;56376;53.356;-1.748;2022-09-12T12:02:48;1.45;;;1.35;;
69256;SDS011;56376;53.356;-1.748;2022-09-12T12:08:11;1.60;;;1.40;;
69256;SDS011;56376;53.356;-1.748;2022-09-12T12:15:54;1.50;;;1.40;;
69256;SDS011;56376;53.356;-1.748;2022-09-12T12:18:27;1.35;;;1.15;;
69256;SDS011;56376;53.356;-1.748;2022-09-12T12:20:54;1.15;;;1.05;;
69256;SDS011;56376;53.356;-1.748;2022-09-12T12:23:31;1.52;;;1.23;;
69256;SDS011;56376;53.356;-1.748;2022-09-12T12:26:00;1.77;;;1.15;;
69256;SDS011;56376;53.356;-1.748;2022-09-12T12:31:08;1.48;;;1.30;;
69256;SDS011;56376;53.356;-1.748;2022-09-12T12:38:35;1.80;;;1.33;;
69256;SDS011;56376;53.356;-1.748;2022-09-12T12:43:43;1.23;;;1.20;;
69256;SDS011;56376;53.356;-1.748;2022-09-12T12:46:13;1.45;;;1.23;;
69256;SDS011;56376;53.356;-1.748;2022-09-12T12:48:45;2.03;;;1.45;;
69256;SDS011;56376;53.356;-1.748;2022-09-12T12:51:32;1.55;;;1.40;;
69256;SDS011;56376;53.356;-1.748;2022-09-12T12:53:59;1.55;;;1.40;;
69256;SDS011;56376;53.356;-1.748;2022-09-12T12:56:48;1.50;;;1.40;;
69256;SDS011;56376;53.356;-1.748;2022-09-12T12:59:21;2.05;;;1.85;;
69256;SDS011;56376;53.356;-1.748;2022-09-12T13:01:48;2.13;;;1.90;;
69256;SDS011;56376;53.356;-1.748;2022-09-12T13:04:18;2.30;;;2.10;;
69256;SDS011;56376;53.356;-1.748;2022-09-12T13:06:46;2.60;;;2.40;;
69256;SDS011;56376;53.356;-1.748;2022-09-12T13:09:24;2.75;;;2.35;;
69256;SDS011;56376;53.356;-1.748;2022-09-12T13:11:59;2.30;;;2.10;;
69256;SDS011;56376;53.356;-1.748;2022-09-12T13:17:28;2.17;;;2.00;;
69256;SDS011;56376;53.356;-1.748;2022-09-12T13:22:39;2.28;;;1.80;;
69256;SDS011;56376;53.356;-1.748;2022-09-12T13:30:35;1.40;;;1.30;;
69256;SDS011;56376;53.356;-1.748;2022-09-12T13:33:14;1.20;;;1.10;;
69256;SDS011;56376;53.356;-1.748;2022-09-12T13:43:38;1.20;;;1.10;;
69256;SDS011;56376;53.356;-1.748;2022-09-12T13:46:06;1.15;;;1.05;;
69256;SDS011;56376;53.356;-1.748;2022-09-12T13:48:34;1.23;;;1.13;;
69256;SDS011;56376;53.356;-1.748;2022-09-12T13:51:00;1.27;;;1.17;;
69256;SDS011;56376;53.356;-1.748;2022-09-12T13:53:30;1.20;;;1.10;;
69256;SDS011;56376;53.356;-1.748;2022-09-12T13:56:04;1.42;;;1.02;;
69256;SDS011;56376;53.356;-1.748;2022-09-12T13:58:31;1.38;;;1.17;;
69256;SDS011;56376;53.356;-1.748;2022-09-12T14:01:20;1.38;;;1.27;;
69256;SDS011;56376;53.356;-1.748;2022-09-12T14:06:47;1.10;;;1.00;;
69256;SDS011;56376;53.356;-1.748;2022-09-12T14:09:22;1.52;;;1.13;;
69256;SDS011;56376;53.356;-1.748;2022-09-12T14:11:53;1.20;;;1.10;;
69256;SDS011;56376;53.356;-1.748;2022-09-12T14:14:26;1.25;;;1.15;;
69256;SDS011;56376;53.356;-1.748;2022-09-12T14:16:59;1.30;;;1.08;;
69256;SDS011;56376;53.356;-1.748;2022-09-12T14:19:26;1.45;;;1.30;;
69256;SDS011;56376;53.356;-1.748;2022-09-12T14:21:53;1.35;;;1.25;;
69256;SDS011;56376;53.356;-1.748;2022-09-12T14:24:20;1.38;;;1.25;;
69256;SDS011;56376;53.356;-1.748;2022-09-12T14:26:47;1.95;;;1.20;;
69256;SDS011;56376;53.356;-1.748;2022-09-12T14:29:15;1.88;;;1.35;;
69256;SDS011;56376;53.356;-1.748;2022-09-12T14:31:41;1.50;;;1.40;;
69256;SDS011;56376;53.356;-1.748;2022-09-12T14:36:49;1.40;;;1.30;;
69256;SDS011;56376;53.356;-1.748;2022-09-12T14:39:20;1.40;;;1.20;;
69256;SDS011;56376;53.356;-1.748;2022-09-12T14:42:03;2.20;;;1.30;;
69256;SDS011;56376;53.356;-1.748;2022-09-12T14:44:55;1.45;;;1.15;;
69256;SDS011;56376;53.356;-1.748;2022-09-12T14:47:25;1.00;;;1.00;;
69256;SDS011;56376;53.356;-1.748;2022-09-12T14:49:54;1.30;;;1.20;;
69256;SDS011;56376;53.356;-1.748;2022-09-12T14:52:30;1.02;;;1.00;;
69256;SDS011;56376;53.356;-1.748;2022-09-12T14:57:37;1.00;;;1.00;;
69256;SDS011;56376;53.356;-1.748;2022-09-12T15:00:24;1.45;;;1.15;;
69256;SDS011;56376;53.356;-1.748;2022-09-12T15:02:51;1.10;;;1.10;;
69256;SDS011;56376;53.356;-1.748;2022-09-12T15:05:21;0.90;;;0.90;;
69256;SDS011;56376;53.356;-1.748;2022-09-12T15:10:30;1.10;;;0.93;;
69256;SDS011;56376;53.356;-1.748;2022-09-12T15:13:18;1.10;;;1.00;;
69256;SDS011;56376;53.356;-1.748;2022-09-12T15:15:53;1.33;;;1.00;;
69256;SDS011;56376;53.356;-1.748;2022-09-12T15:18:20;1.10;;;1.00;;
69256;SDS011;56376;53.356;-1.748;2022-09-12T15:20:53;0.88;;;0.85;;
69256;SDS011;56376;53.356;-1.748;2022-09-12T15:23:38;1.20;;;1.00;;
69256;SDS011;56376;53.356;-1.748;2022-09-12T15:26:06;1.55;;;1.30;;
69256;SDS011;56376;53.356;-1.748;2022-09-12T15:28:35;1.35;;;1.25;;
69256;SDS011;56376;53.356;-1.748;2022-09-12T15:31:04;2.17;;;1.77;;
69256;SDS011;56376;53.356;-1.748;2022-09-12T15:33:35;2.22;;;1.88;;
69256;SDS011;56376;53.356;-1.748;2022-09-12T15:36:00;2.50;;;2.30;;
69256;SDS011;56376;53.356;-1.748;2022-09-12T15:38:26;2.60;;;2.40;;
69256;SDS011;56376;53.356;-1.748;2022-09-12T15:40:51;3.92;;;3.63;;
69256;SDS011;56376;53.356;-1.748;2022-09-12T15:43:18;3.97;;;3.67;;
69256;SDS011;56376;53.356;-1.748;2022-09-12T15:45:44;3.15;;;2.95;;
69256;SDS011;56376;53.356;-1.748;2022-09-12T15:48:11;3.80;;;3.45;;
69256;SDS011;56376;53.356;-1.748;2022-09-12T15:50:37;3.15;;;2.95;;
69256;SDS011;56376;53.356;-1.748;2022-09-12T15:53:04;2.45;;;2.25;;
69256;SDS011;56376;53.356;-1.748;2022-09-12T15:55:30;2.70;;;2.50;;
69256;SDS011;56376;53.356;-1.748;2022-09-12T15:57:58;2.50;;;2.30;;
69256;SDS011;56376;53.356;-1.748;2022-09-12T16:00:24;2.58;;;2.38;;
69256;SDS011;56376;53.356;-1.748;2022-09-12T16:02:51;2.30;;;2.10;;
69256;SDS011;56376;53.356;-1.748;2022-09-12T16:05:21;2.58;;;2.38;;
69256;SDS011;56376;53.356;-1.748;2022-09-12T16:07:52;2.70;;;2.50;;
69256;SDS011;56376;53.356;-1.748;2022-09-12T16:10:25;3.17;;;2.92;;
69256;SDS011;56376;53.356;-1.748;2022-09-12T16:12:53;2.85;;;2.65;;
69256;SDS011;56376;53.356;-1.748;2022-09-12T16:15:20;2.83;;;2.63;;
69256;SDS011;56376;53.356;-1.748;2022-09-12T16:17:47;3.40;;;3.20;;
69256;SDS011;56376;53.356;-1.748;2022-09-12T16:20:13;3.90;;;3.60;;
69256;SDS011;56376;53.356;-1.748;2022-09-12T16:22:38;3.38;;;3.17;;
69256;SDS011;56376;53.356;-1.748;2022-09-12T16:25:04;3.72;;;3.33;;
69256;SDS011;56376;53.356;-1.748;2022-09-12T16:27:30;3.75;;;3.45;;
69256;SDS011;56376;53.356;-1.748;2022-09-12T16:29:56;3.53;;;3.20;;
69256;SDS011;56376;53.356;-1.748;2022-09-12T16:32:22;3.67;;;3.33;;
69256;SDS011;56376;53.356;-1.748;2022-09-12T16:34:47;3.47;;;3.17;;
69256;SDS011;56376;53.356;-1.748;2022-09-12T16:37:14;3.13;;;2.88;;
69256;SDS011;56376;53.356;-1.748;2022-09-12T16:39:39;2.80;;;2.60;;
69256;SDS011;56376;53.356;-1.748;2022-09-12T16:42:05;2.78;;;2.58;;
69256;SDS011;56376;53.356;-1.748;2022-09-12T16:44:30;3.00;;;2.80;;
69256;SDS011;56376;53.356;-1.748;2022-09-12T16:46:55;2.30;;;2.10;;
69256;SDS011;56376;53.356;-1.748;2022-09-12T16:49:21;2.47;;;2.28;;
69256;SDS011;56376;53.356;-1.748;2022-09-12T16:51:46;2.50;;;2.22;;
69256;SDS011;56376;53.356;-1.748;2022-09-12T16:54:15;1.98;;;1.80;;
69256;SDS011;56376;53.356;-1.748;2022-09-12T16:56:41;1.08;;;1.02;;
69256;SDS011;56376;53.356;-1.748;2022-09-12T16:59:07;0.90;;;0.90;;
69256;SDS011;56376;53.356;-1.748;2022-09-12T17:01:40;1.10;;;0.82;;
69256;SDS011;56376;53.356;-1.748;2022-09-12T17:04:05;0.80;;;0.80;;
69256;SDS011;56376;53.356;-1.748;2022-09-12T17:06:31;0.60;;;0.60;;
69256;SDS011;56376;53.356;-1.748;2022-09-12T17:08:58;0.50;;;0.50;;
69256;SDS011;56376;53.356;-1.748;2022-09-12T17:11:26;0.38;;;0.38;;
69256;SDS011;56376;53.356;-1.748;2022-09-12T17:13:56;0.50;;;0.50;;
69256;SDS011;56376;53.356;-1.748;2022-09-12T17:16:22;0.40;;;0.40;;
69256;SDS011;56376;53.356;-1.748;2022-09-12T17:18:50;0.40;;;0.40;;
69256;SDS011;56376;53.356;-1.748;2022-09-12T17:21:15;1.00;;;0.40;;
69256;SDS011;56376;53.356;-1.748;2022-09-12T17:23:42;0.50;;;0.50;;
69256;SDS011;56376;53.356;-1.748;2022-09-12T17:26:08;0.75;;;0.75;;
69256;SDS011;56376;53.356;-1.748;2022-09-12T17:28:35;0.70;;;0.70;;
69256;SDS011;56376;53.356;-1.748;2022-09-12T17:31:02;0.90;;;0.90;;
69256;SDS011;56376;53.356;-1.748;2022-09-12T17:33:29;0.90;;;0.90;;
69256;SDS011;56376;53.356;-1.748;2022-09-12T17:36:06;1.02;;;1.00;;
69256;SDS011;56376;53.356;-1.748;2022-09-12T17:38:34;0.90;;;0.90;;